Time;durP1;ratioP1;P1;durP2;ratioP2;P2;SDS_P1;SDS_P2;PMS_P1;PMS_P2;Temp;Humidity;BMP_temperature;BMP_pressure;BME280_temperature;BME280_humidity;BME280_pressure;Samples;Min_cycle;Max_cycle;Signal;HPM_P1;HPM_P2
2023/10/17 00:00:28;;;;;;;7.73;3.20;;;5.20;1.00;;;;;;5006060;28;20494;-67
2023/10/17 00:02:59;;;;;;;4.63;3.30;;;5.20;1.00;;;;;;5001497;28;20567;-65
2023/10/17 00:05:26;;;;;;;4.90;3.30;;;5.10;1.00;;;;;;5009332;28;20971;-60
2023/10/17 00:07:58;;;;;;;7.07;3.70;;;5.10;1.00;;;;;;5002972;28;20638;-60
2023/10/17 00:10:29;;;;;;;4.57;3.57;;;5.10;1.00;;;;;;4987356;28;20201;-61
2023/10/17 00:13:18;;;;;;;4.70;3.07;;;5.10;1.00;;;;;;4990135;28;20661;-61
2023/10/17 00:15:46;;;;;;;6.57;3.40;;;5.00;1.00;;;;;;5002695;28;20244;-61
2023/10/17 00:18:16;;;;;;;7.20;3.93;;;5.00;1.00;;;;;;4991341;28;20675;-60
2023/10/17 00:20:44;;;;;;;7.47;4.43;;;4.90;1.00;;;;;;4991619;28;20197;-61
2023/10/17 00:23:15;;;;;;;4.27;3.33;;;4.90;1.00;;;;;;5011723;28;20284;-61
2023/10/17 00:25:42;;;;;;;5.60;4.07;;;4.90;1.00;;;;;;4977963;28;20443;-61
2023/10/17 00:28:13;;;;;;;7.63;4.17;;;4.90;1.00;;;;;;5009264;28;20227;-63
2023/10/17 00:30:41;;;;;;;5.37;4.03;;;4.90;1.00;;;;;;5006087;28;20657;-66
2023/10/17 00:33:12;;;;;;;5.33;3.83;;;5.00;1.00;;;;;;4992928;28;20193;-69
2023/10/17 00:35:48;;;;;;;5.07;3.37;;;4.90;1.00;;;;;;4986963;28;20196;-65
2023/10/17 00:38:16;;;;;;;5.83;4.00;;;5.00;1.00;;;;;;5010852;28;20738;-66
2023/10/17 00:40:51;;;;;;;5.53;4.53;;;5.00;1.00;;;;;;4975156;28;20745;-67
2023/10/17 00:43:23;;;;;;;5.90;4.17;;;4.90;1.00;;;;;;5003265;28;20211;-65
2023/10/17 00:45:50;;;;;;;5.73;3.87;;;4.90;1.00;;;;;;4988315;28;20315;-62
2023/10/17 00:48:20;;;;;;;6.50;4.70;;;4.90;1.00;;;;;;5004853;28;20291;-62
2023/10/17 00:50:50;;;;;;;5.87;4.57;;;4.90;1.00;;;;;;5007141;28;20216;-62
2023/10/17 00:53:20;;;;;;;5.63;3.97;;;4.90;1.00;;;;;;5007189;28;20349;-65
2023/10/17 00:55:51;;;;;;;18.50;4.57;;;4.90;1.00;;;;;;4991580;28;20955;-69
2023/10/17 00:58:18;;;;;;;7.20;4.80;;;5.00;1.00;;;;;;4994490;28;20189;-62
2023/10/17 01:00:58;;;;;;;6.43;4.33;;;5.00;1.00;;;;;;4986563;28;20229;-67
2023/10/17 01:03:29;;;;;;;7.90;4.90;;;5.00;1.00;;;;;;4990362;28;20220;-66
2023/10/17 01:08:46;;;;;;;9.20;5.63;;;5.00;1.00;;;;;;5008280;28;20189;-65
2023/10/17 01:11:21;;;;;;;6.00;4.37;;;4.90;1.00;;;;;;4991062;28;20217;-65
2023/10/17 01:13:55;;;;;;;8.17;4.80;;;4.90;1.00;;;;;;5008321;28;20292;-69
2023/10/17 01:16:27;;;;;;;8.10;5.93;;;4.90;1.00;;;;;;4992146;28;20715;-67
2023/10/17 01:18:54;;;;;;;7.20;4.30;;;4.90;1.00;;;;;;4987152;28;20727;-66
2023/10/17 01:21:21;;;;;;;6.17;4.73;;;4.90;1.00;;;;;;4993289;28;20280;-66
2023/10/17 01:23:50;;;;;;;9.60;4.77;;;4.90;1.00;;;;;;4988954;28;20205;-66
2023/10/17 01:26:22;;;;;;;7.37;5.07;;;4.90;1.00;;;;;;4987564;28;20224;-66
2023/10/17 01:28:52;;;;;;;12.83;4.40;;;4.90;1.00;;;;;;5006384;28;20644;-65
2023/10/17 01:31:23;;;;;;;11.90;6.67;;;4.90;1.00;;;;;;4990866;28;20196;-65
2023/10/17 01:33:59;;;;;;;10.10;6.50;;;5.00;1.00;;;;;;5000292;28;20251;-64
2023/10/17 01:36:26;;;;;;;9.00;4.93;;;4.90;1.00;;;;;;4985089;28;20521;-65
2023/10/17 01:38:54;;;;;;;11.77;5.67;;;5.10;1.00;;;;;;5005941;28;20657;-64
2023/10/17 01:41:22;;;;;;;9.80;5.93;;;5.20;1.00;;;;;;4992116;28;20209;-64
2023/10/17 01:43:50;;;;;;;9.63;6.40;;;5.30;1.00;;;;;;4992154;28;20572;-65
2023/10/17 01:46:23;;;;;;;9.10;5.30;;;5.30;1.00;;;;;;5008895;28;20672;-65
2023/10/17 01:48:54;;;;;;;5.50;4.53;;;5.30;1.00;;;;;;5000317;28;20700;-70
2023/10/17 01:51:24;;;;;;;6.20;4.70;;;5.10;1.00;;;;;;5005871;28;20737;-62
2023/10/17 01:53:52;;;;;;;10.00;4.93;;;5.00;1.00;;;;;;4986458;28;20212;-61
2023/10/17 01:56:26;;;;;;;5.37;4.63;;;4.90;1.00;;;;;;5006063;28;20288;-61
2023/10/17 01:59:09;;;;;;;10.27;5.23;;;4.90;1.00;;;;;;4990866;28;20437;-61
2023/10/17 02:05:36;;;;;;;8.23;5.00;;;4.90;1.00;;;;;;5006650;28;20176;-62
2023/10/17 02:08:05;;;;;;;7.00;4.93;;;4.90;1.00;;;;;;5008667;28;20748;-63
2023/10/17 02:10:33;;;;;;;8.97;4.80;;;4.90;1.00;;;;;;5008830;28;20189;-62
2023/10/17 02:13:00;;;;;;;8.40;6.03;;;4.90;1.00;;;;;;4990085;28;20194;-63
2023/10/17 02:15:28;;;;;;;9.27;5.67;;;5.00;1.00;;;;;;4974409;28;20687;-67
2023/10/17 02:17:57;;;;;;;8.67;5.00;;;4.90;1.00;;;;;;4999571;28;20813;-67
2023/10/17 02:22:59;;;;;;;6.97;5.63;;;4.80;1.00;;;;;;4989493;28;20683;-65
2023/10/17 02:25:35;;;;;;;7.80;5.03;;;4.80;1.00;;;;;;4988518;28;20212;-65
2023/10/17 02:28:02;;;;;;;6.60;4.97;;;4.80;1.00;;;;;;5008709;28;20216;-65
2023/10/17 02:30:29;;;;;;;7.63;5.50;;;4.80;1.00;;;;;;4989876;28;20208;-67
2023/10/17 02:32:56;;;;;;;10.70;5.73;;;4.80;1.00;;;;;;5009368;28;20193;-61
2023/10/17 02:35:36;;;;;;;8.33;5.70;;;4.90;1.00;;;;;;5008125;28;20194;-62
2023/10/17 02:38:05;;;;;;;8.13;5.83;;;4.90;1.00;;;;;;4968014;28;20221;-62
2023/10/17 02:40:40;;;;;;;12.80;5.80;;;4.90;1.00;;;;;;5007202;28;20659;-63
2023/10/17 02:43:12;;;;;;;8.00;5.93;;;4.90;1.00;;;;;;5006236;28;20181;-62
2023/10/17 02:45:41;;;;;;;8.30;5.77;;;4.90;1.00;;;;;;5006853;28;20266;-63
2023/10/17 02:48:25;;;;;;;8.07;5.47;;;5.00;1.00;;;;;;5006417;28;20193;-61
2023/10/17 02:50:59;;;;;;;7.23;5.50;;;5.00;1.00;;;;;;4986390;28;20200;-66
2023/10/17 02:53:31;;;;;;;8.57;6.33;;;5.00;1.00;;;;;;4988006;28;20189;-60
2023/10/17 02:55:58;;;;;;;6.13;5.27;;;5.00;1.00;;;;;;5002041;28;20386;-60
2023/10/17 02:58:25;;;;;;;8.10;6.13;;;5.00;1.00;;;;;;5007927;28;20193;-65
2023/10/17 03:00:52;;;;;;;12.20;6.43;;;5.00;1.00;;;;;;4986824;28;20196;-61
2023/10/17 03:03:20;;;;;;;11.50;6.90;;;5.00;1.00;;;;;;4989566;28;20197;-60
2023/10/17 03:05:50;;;;;;;8.43;6.10;;;5.00;1.00;;;;;;4984760;28;20669;-62
2023/10/17 03:08:18;;;;;;;11.30;6.73;;;5.00;1.00;;;;;;5007051;28;20197;-59
2023/10/17 03:10:45;;;;;;;7.17;6.03;;;5.00;1.00;;;;;;4990439;28;20193;-60
2023/10/17 03:13:23;;;;;;;6.63;5.20;;;5.00;1.00;;;;;;5005679;28;20201;-60
2023/10/17 03:15:57;;;;;;;9.90;6.47;;;5.00;1.00;;;;;;5002143;28;20227;-61
2023/10/17 03:18:27;;;;;;;9.13;5.87;;;5.00;1.00;;;;;;4979992;28;20192;-60
2023/10/17 03:20:54;;;;;;;8.23;6.17;;;5.00;1.00;;;;;;5002855;28;20245;-60
2023/10/17 03:23:27;;;;;;;9.63;6.00;;;5.00;1.00;;;;;;5006538;28;20185;-60
2023/10/17 03:26:01;;;;;;;12.13;5.80;;;5.00;1.00;;;;;;5006881;28;20770;-59
2023/10/17 03:28:33;;;;;;;10.37;5.53;;;5.00;1.00;;;;;;4971516;28;20196;-60
2023/10/17 03:31:00;;;;;;;9.20;6.57;;;5.00;1.00;;;;;;4998647;28;20189;-61
2023/10/17 03:33:29;;;;;;;9.57;6.00;;;5.00;1.00;;;;;;4989883;28;20189;-60
2023/10/17 03:36:04;;;;;;;9.20;6.63;;;5.00;1.00;;;;;;5000092;28;20201;-60
2023/10/17 03:38:33;;;;;;;8.37;5.90;;;5.00;1.00;;;;;;5015909;28;20547;-60
2023/10/17 03:41:17;;;;;;;11.63;5.90;;;5.00;1.00;;;;;;5005585;28;20267;-61
2023/10/17 03:43:53;;;;;;;12.37;6.33;;;5.00;1.00;;;;;;4988050;28;20448;-61
2023/10/17 03:46:25;;;;;;;9.73;6.40;;;5.00;1.00;;;;;;5001287;28;20240;-60
2023/10/17 03:49:00;;;;;;;11.83;6.73;;;5.00;1.00;;;;;;4984298;28;20220;-60
2023/10/17 03:51:27;;;;;;;12.77;6.20;;;5.00;1.00;;;;;;5000838;28;20533;-62
2023/10/17 03:54:07;;;;;;;7.33;5.90;;;5.00;1.00;;;;;;5009197;28;20189;-61
2023/10/17 03:56:49;;;;;;;7.63;5.90;;;5.00;1.00;;;;;;5007087;28;20207;-62
2023/10/17 03:59:21;;;;;;;9.67;6.27;;;5.10;1.00;;;;;;4991688;28;20240;-61
2023/10/17 04:01:48;;;;;;;6.97;5.17;;;5.10;1.00;;;;;;5010308;28;20203;-61
2023/10/17 04:04:33;;;;;;;12.30;6.23;;;4.90;1.00;;;;;;5011709;28;20480;-61
2023/10/17 04:07:04;;;;;;;6.67;5.30;;;4.90;1.00;;;;;;5006682;28;20232;-65
2023/10/17 04:09:37;;;;;;;9.13;6.73;;;4.80;1.00;;;;;;5004795;28;20204;-65
2023/10/17 04:12:06;;;;;;;8.90;6.03;;;4.80;1.00;;;;;;5005343;28;20200;-69
2023/10/17 04:14:34;;;;;;;11.53;5.97;;;4.80;1.00;;;;;;5008533;28;20240;-66
2023/10/17 04:17:07;;;;;;;13.37;7.27;;;4.70;1.00;;;;;;5004128;28;20724;-62
2023/10/17 04:19:39;;;;;;;12.97;7.10;;;4.80;1.00;;;;;;4998091;28;20201;-60
2023/10/17 04:22:17;;;;;;;10.27;7.10;;;4.80;1.00;;;;;;4991325;28;20209;-60
2023/10/17 04:24:49;;;;;;;9.87;6.60;;;4.80;1.00;;;;;;4989571;28;20201;-61
2023/10/17 04:29:50;;;;;;;10.13;7.13;;;4.90;1.00;;;;;;5006953;28;20197;-64
2023/10/17 04:32:19;;;;;;;9.93;6.37;;;4.90;1.00;;;;;;5008904;28;20185;-62
2023/10/17 04:34:47;;;;;;;9.67;6.93;;;4.90;1.00;;;;;;5007446;28;20201;-63
2023/10/17 04:37:24;;;;;;;19.97;8.63;;;4.90;1.00;;;;;;4993619;28;20203;-62
2023/10/17 04:40:27;;;;;;;20.00;11.07;;;4.90;1.00;;;;;;5008230;28;20715;-62
2023/10/17 04:45:23;;;;;;;24.73;12.33;;;5.00;1.00;;;;;;5009857;28;20216;-65
2023/10/17 04:48:10;;;;;;;19.97;11.10;;;5.30;1.00;;;;;;4992752;28;20600;-66
2023/10/17 04:50:55;;;;;;;16.00;11.03;;;5.60;1.00;;;;;;5005384;28;20765;-68
2023/10/17 04:53:35;;;;;;;12.87;8.53;;;5.50;1.00;;;;;;5008827;28;20254;-66
2023/10/17 04:59:11;;;;;;;14.37;8.80;;;5.40;1.00;;;;;;5001824;28;20197;-74
2023/10/17 05:01:46;;;;;;;16.50;9.13;;;5.30;1.00;;;;;;5002931;28;20509;-66
2023/10/17 05:04:20;;;;;;;10.27;7.17;;;5.20;1.00;;;;;;5007303;28;20193;-67
2023/10/17 06:16:59;;;;;;;17.17;9.30;;;5.00;1.00;;;;;;4975042;28;20232;-61
2023/10/17 06:19:24;;;;;;;18.63;9.37;;;5.10;1.00;;;;;;4977666;28;20198;-61
2023/10/17 06:30:27;;;;;;;19.57;10.47;;;5.30;1.00;;;;;;4940133;28;20528;-63
2023/10/17 06:33:17;;;;;;;13.07;8.77;;;5.30;1.00;;;;;;4971068;28;20994;-62
2023/10/17 06:35:46;;;;;;;17.10;9.97;;;5.40;1.00;;;;;;4985336;28;20284;-63
2023/10/17 06:38:16;;;;;;;19.10;10.23;;;5.50;1.00;;;;;;4986388;28;20661;-62
2023/10/17 06:40:53;;;;;;;17.57;10.50;;;5.60;1.00;;;;;;4981691;28;20190;-62
2023/10/17 06:43:29;;;;;;;20.53;10.20;;;5.70;1.00;;;;;;5002436;28;20194;-62
2023/10/17 06:46:00;;;;;;;23.67;10.13;;;5.80;1.00;;;;;;4983522;28;20258;-61
2023/10/17 06:48:33;;;;;;;16.97;9.07;;;6.00;1.00;;;;;;4974624;28;20268;-62
2023/10/17 06:53:48;;;;;;;22.47;10.30;;;6.20;1.00;;;;;;4984797;28;20197;-61
2023/10/17 06:56:18;;;;;;;17.77;11.23;;;6.30;1.00;;;;;;4986974;28;20285;-61
2023/10/17 06:58:47;;;;;;;18.30;10.60;;;6.50;99.90;;;;;;4983008;28;20640;-64
2023/10/17 07:01:27;;;;;;;17.40;11.23;;;6.80;99.90;;;;;;4987803;28;20544;-65
2023/10/17 07:03:55;;;;;;;35.77;16.23;;;6.70;99.90;;;;;;4986642;28;20693;-62
2023/10/17 07:06:26;;;;;;;32.70;18.23;;;7.80;1.00;;;;;;5000893;28;20296;-64
2023/10/17 07:08:54;;;;;;;42.47;20.83;;;8.60;99.90;;;;;;4988226;28;20597;-66
2023/10/17 07:16:41;;;;;;;15.77;8.97;;;8.90;99.90;;;;;;4995412;28;20356;-62
2023/10/17 07:19:09;;;;;;;12.30;7.90;;;8.30;99.90;;;;;;4981567;28;20287;-62
2023/10/17 07:21:57;;;;;;;17.57;8.23;;;7.90;99.90;;;;;;4988388;28;20202;-62
2023/10/17 07:24:25;;;;;;;14.10;8.20;;;7.70;99.90;;;;;;4977431;28;20198;-63
2023/10/17 07:26:53;;;;;;;12.47;8.70;;;7.50;99.90;;;;;;5001190;28;20205;-63
2023/10/17 07:29:24;;;;;;;14.70;9.70;;;7.50;99.90;;;;;;4981339;28;20638;-61
2023/10/17 07:31:54;;;;;;;14.20;8.97;;;7.60;99.90;;;;;;4978504;28;20193;-64
2023/10/17 07:34:23;;;;;;;16.60;10.97;;;7.60;99.90;;;;;;4986211;28;20194;-63
2023/10/17 07:36:58;;;;;;;19.23;11.03;;;8.20;99.90;;;;;;4981528;28;20201;-65
2023/10/17 07:39:29;;;;;;;19.10;11.13;;;9.00;99.90;;;;;;4986925;28;20193;-66
2023/10/17 07:41:58;;;;;;;13.80;8.77;;;9.50;99.90;;;;;;5000066;28;20202;-65
2023/10/17 07:44:26;;;;;;;16.07;7.63;;;9.20;99.90;;;;;;4987830;28;20198;-69
2023/10/17 07:49:31;;;;;;;14.70;7.37;;;8.30;99.90;;;;;;4992005;28;20612;-66
2023/10/17 07:51:58;;;;;;;17.83;9.07;;;8.20;99.90;;;;;;4986122;28;20209;-66
2023/10/17 07:54:28;;;;;;;13.67;8.47;;;8.00;99.90;;;;;;4972399;28;20214;-65
2023/10/17 07:56:58;;;;;;;15.07;8.43;;;7.90;99.90;;;;;;4979099;28;20209;-66
2023/10/17 07:59:31;;;;;;;13.97;8.03;;;8.00;99.90;;;;;;4982711;28;20201;-65
2023/10/17 08:02:00;;;;;;;13.97;8.57;;;8.20;99.90;;;;;;4986472;28;20201;-65
2023/10/17 08:04:30;;;;;;;11.80;7.80;;;8.30;99.90;;;;;;4987137;28;20224;-68
2023/10/17 08:06:58;;;;;;;11.13;6.57;;;8.60;99.90;;;;;;4984453;28;20201;-66
2023/10/17 08:09:35;;;;;;;12.10;7.20;;;8.50;99.90;;;;;;4985064;28;20737;-65
2023/10/17 08:12:08;;;;;;;13.97;9.00;;;8.50;99.90;;;;;;4998463;28;20216;-66
2023/10/17 08:14:42;;;;;;;12.53;7.43;;;8.70;99.90;;;;;;4980926;28;20272;-65
2023/10/17 08:17:09;;;;;;;14.73;8.23;;;8.80;99.90;;;;;;4996267;28;20247;-66
2023/10/17 08:20:00;;;;;;;22.10;9.73;;;8.90;99.90;;;;;;4987174;28;20743;-67
2023/10/17 08:22:27;;;;;;;12.17;7.53;;;8.80;99.90;;;;;;5003099;28;20197;-65
2023/10/17 08:24:57;;;;;;;16.10;8.50;;;8.80;99.90;;;;;;4995991;28;20286;-65
2023/10/17 08:30:00;;;;;;;11.80;8.03;;;8.80;99.90;;;;;;4996355;28;20205;-65
2023/10/17 08:34:59;;;;;;;12.20;8.17;;;8.90;99.90;;;;;;5000374;28;20720;-65
2023/10/17 08:37:28;;;;;;;14.63;8.53;;;9.10;99.90;;;;;;5005115;28;20272;-66
2023/10/17 08:39:57;;;;;;;13.67;7.70;;;9.20;99.90;;;;;;4987703;28;20216;-64
2023/10/17 08:42:30;;;;;;;14.63;7.97;;;9.10;99.90;;;;;;5008370;28;20653;-65
2023/10/17 08:45:02;;;;;;;12.57;8.23;;;9.20;99.90;;;;;;4987872;28;20704;-65
2023/10/17 08:47:32;;;;;;;15.10;8.83;;;9.70;99.90;;;;;;4996792;28;20665;-66
2023/10/17 08:50:03;;;;;;;13.20;7.20;;;13.60;99.90;;;;;;4993493;28;20645;-66
2023/10/17 08:52:37;;;;;;;10.77;6.73;;;17.00;99.90;;;;;;4978803;28;20296;-66
2023/10/17 08:55:05;;;;;;;12.23;7.40;;;18.00;99.90;;;;;;4985703;28;20688;-67
2023/10/17 08:57:33;;;;;;;10.73;6.50;;;19.80;99.90;;;;;;5007723;28;20193;-63
2023/10/17 09:02:35;;;;;;;14.15;6.93;;;18.00;99.90;;;;;;5008748;28;20225;-68
2023/10/17 09:05:18;;;;;;;11.32;6.72;;;18.70;99.90;;;;;;4988556;28;20763;-63
2023/10/17 09:07:45;;;;;;;9.43;6.93;;;20.30;99.90;;;;;;4990712;28;20213;-63
2023/10/17 09:10:30;;;;;;;12.63;6.45;;;18.30;99.90;;;;;;5010951;28;20569;-64
2023/10/17 09:15:48;;;;;;;7.88;5.75;;;15.90;99.90;;;;;;5006876;28;20233;-62
2023/10/17 09:18:21;;;;;;;8.80;6.25;;;16.20;99.90;;;;;;5014697;28;20737;-64
2023/10/17 09:20:50;;;;;;;10.63;6.85;;;18.30;99.90;;;;;;5005077;28;20242;-63
2023/10/17 09:23:26;;;;;;;7.57;5.88;;;19.70;99.90;;;;;;5010956;28;20193;-62
2023/10/17 09:26:12;;;;;;;7.82;6.00;;;20.90;99.90;;;;;;4990749;28;20192;-62
2023/10/17 09:28:40;;;;;;;9.23;6.38;;;18.20;99.90;;;;;;5010494;28;20762;-63
2023/10/17 09:31:08;;;;;;;8.23;5.60;;;18.20;99.90;;;;;;4994217;28;20267;-63
2023/10/17 09:33:43;;;;;;;7.32;5.43;;;20.80;99.90;;;;;;5008287;28;20185;-65
2023/10/17 09:36:18;;;;;;;7.90;5.82;;;22.60;99.90;;;;;;5009701;28;20672;-69
2023/10/17 09:38:47;;;;;;;8.23;5.70;;;21.40;99.90;;;;;;5007908;28;20672;-63
2023/10/17 09:41:18;;;;;;;7.32;5.75;;;20.60;99.90;;;;;;4998360;28;20197;-64
2023/10/17 09:43:51;;;;;;;7.63;5.88;;;20.10;99.90;;;;;;4988978;28;20193;-64
2023/10/17 09:46:24;;;;;;;8.45;6.00;;;20.80;99.90;;;;;;4999461;28;20224;-62
2023/10/17 09:48:52;;;;;;;9.30;6.20;;;22.90;99.90;;;;;;5000246;28;20224;-67
2023/10/17 09:51:22;;;;;;;10.50;6.47;;;21.00;99.90;;;;;;4987692;28;20595;-65
2023/10/17 09:53:53;;;;;;;8.85;5.97;;;21.10;99.90;;;;;;4989345;28;20280;-64
2023/10/17 09:56:30;;;;;;;7.90;5.50;;;22.90;99.90;;;;;;4990676;28;20193;-67
2023/10/17 09:59:03;;;;;;;6.13;5.50;;;24.60;99.90;;;;;;4972383;28;20744;-64
2023/10/17 10:01:31;;;;;;;8.63;5.78;;;23.30;99.90;;;;;;4990816;28;20668;-64
2023/10/17 10:04:02;;;;;;;8.07;5.25;;;25.40;99.90;;;;;;4990606;28;20254;-64
2023/10/17 10:06:36;;;;;;;6.20;5.57;;;26.10;99.90;;;;;;5003437;28;20201;-67
2023/10/17 10:09:06;;;;;;;6.35;5.60;;;26.50;99.90;;;;;;5012053;28;20799;-63
2023/10/17 10:11:48;;;;;;;6.13;5.00;;;25.50;99.90;;;;;;4992159;28;20192;-64
2023/10/17 10:14:36;;;;;;;6.10;5.35;;;25.00;99.90;;;;;;5008960;28;20287;-65
2023/10/17 10:17:04;;;;;;;7.07;5.35;;;23.80;99.90;;;;;;5001685;28;20232;-64
2023/10/17 10:19:40;;;;;;;11.35;5.90;;;23.40;99.90;;;;;;4991292;28;20204;-65
2023/10/17 10:22:10;;;;;;;6.22;4.78;;;23.50;99.90;;;;;;4989821;28;20272;-64
2023/10/17 10:24:39;;;;;;;6.78;4.95;;;24.20;99.90;;;;;;4978308;28;20201;-63
2023/10/17 10:27:10;;;;;;;7.13;5.30;;;22.30;99.90;;;;;;4996278;28;20212;-63
2023/10/17 10:29:37;;;;;;;5.13;4.63;;;21.20;99.90;;;;;;4991430;28;20673;-63
2023/10/17 10:32:07;;;;;;;5.78;4.70;;;22.10;99.90;;;;;;5008234;28;20192;-64
2023/10/17 10:34:39;;;;;;;6.85;5.47;;;22.30;99.90;;;;;;4982066;28;20221;-64
2023/10/17 10:37:08;;;;;;;8.18;5.13;;;22.40;99.90;;;;;;4998345;28;20192;-64
2023/10/17 10:39:35;;;;;;;5.82;4.82;;;24.50;99.90;;;;;;4991631;28;20556;-65
2023/10/17 10:42:06;;;;;;;6.25;5.35;;;23.90;99.90;;;;;;4992409;28;20209;-63
2023/10/17 10:44:41;;;;;;;6.88;4.70;;;22.80;99.90;;;;;;5007574;28;20208;-63
2023/10/17 10:47:09;;;;;;;5.38;4.78;;;23.20;99.90;;;;;;4973286;28;20197;-64
2023/10/17 10:49:38;;;;;;;5.82;5.05;;;23.20;99.90;;;;;;5010025;28;20229;-63
2023/10/17 10:52:05;;;;;;;6.38;4.97;;;23.20;99.90;;;;;;4992644;28;20201;-67
2023/10/17 10:54:54;;;;;;;7.30;5.78;;;21.60;99.90;;;;;;5005050;28;20596;-64
2023/10/17 10:57:30;;;;;;;5.88;5.13;;;21.80;99.90;;;;;;5007640;28;20200;-64
2023/10/17 10:59:58;;;;;;;9.45;5.38;;;21.40;99.90;;;;;;4992594;28;20193;-64
2023/10/17 11:02:25;;;;;;;5.20;4.70;;;20.30;99.90;;;;;;5008163;28;20197;-66
2023/10/17 11:04:53;;;;;;;7.43;4.80;;;20.20;99.90;;;;;;5008252;28;20683;-64
2023/10/17 11:07:24;;;;;;;5.65;5.07;;;21.60;99.90;;;;;;5008532;28;20672;-63
2023/10/17 11:10:06;;;;;;;5.65;4.40;;;21.40;99.90;;;;;;5007432;28;20558;-64
2023/10/17 11:12:34;;;;;;;7.45;4.95;;;19.90;99.90;;;;;;4998973;28;20727;-66
2023/10/17 11:15:14;;;;;;;5.85;4.85;;;20.00;99.90;;;;;;4990307;28;20239;-65
2023/10/17 11:17:43;;;;;;;7.13;4.22;;;19.10;99.90;;;;;;4989983;28;20225;-64
2023/10/17 11:20:15;;;;;;;8.15;4.90;;;19.70;99.90;;;;;;4989300;28;20200;-63
2023/10/17 11:22:43;;;;;;;4.70;4.25;;;19.00;99.90;;;;;;5011128;28;20251;-64
2023/10/17 11:25:27;;;;;;;4.30;3.90;;;18.20;99.90;;;;;;5007576;28;20263;-63
2023/10/17 11:28:07;;;;;;;5.07;3.72;;;18.50;99.90;;;;;;5006567;28;20200;-63
2023/10/17 11:30:40;;;;;;;4.28;3.88;;;18.80;99.90;;;;;;4969744;28;20189;-64
2023/10/17 11:33:14;;;;;;;4.53;4.13;;;18.90;99.90;;;;;;5009084;28;20193;-64
2023/10/17 11:35:52;;;;;;;5.38;3.95;;;18.80;99.90;;;;;;5005425;28;20193;-64
2023/10/17 11:38:34;;;;;;;3.78;3.47;;;18.60;99.90;;;;;;4989990;28;20197;-64
2023/10/17 11:41:15;;;;;;;4.00;3.60;;;18.70;99.90;;;;;;5007219;28;20217;-64
2023/10/17 11:43:51;;;;;;;6.40;3.83;;;18.60;99.90;;;;;;5007470;28;20255;-64
2023/10/17 11:46:29;;;;;;;3.90;3.50;;;18.60;99.90;;;;;;5006116;28;20248;-65
2023/10/17 11:49:28;;;;;;;3.65;3.17;;;17.90;99.90;;;;;;5006259;28;20846;-65
2023/10/17 11:52:09;;;;;;;5.25;3.67;;;17.00;99.90;;;;;;5002372;28;20185;-66
2023/10/17 11:55:00;;;;;;;3.92;3.50;;;17.20;99.90;;;;;;5006693;28;20685;-65
2023/10/17 11:57:31;;;;;;;4.00;3.70;;;18.20;99.90;;;;;;4997348;28;20181;-64
2023/10/17 12:02:49;;;;;;;5.25;4.03;;;17.20;99.90;;;;;;5009520;28;20203;-64
2023/10/17 12:05:18;;;;;;;4.25;3.85;;;16.40;99.90;;;;;;5004054;28;20205;-62
2023/10/17 12:07:49;;;;;;;3.85;3.55;;;16.10;99.90;;;;;;4990646;28;20291;-66
2023/10/17 12:10:17;;;;;;;3.90;3.53;;;16.80;99.90;;;;;;4991301;28;20217;-63
2023/10/17 12:12:44;;;;;;;4.13;3.72;;;16.50;99.90;;;;;;4997701;28;20220;-63
2023/10/17 12:15:20;;;;;;;4.95;3.75;;;16.60;99.90;;;;;;5011154;28;20580;-63
2023/10/17 12:17:49;;;;;;;5.72;3.75;;;16.40;99.90;;;;;;4994514;28;20204;-63
2023/10/17 12:20:19;;;;;;;4.13;3.50;;;16.30;99.90;;;;;;5003696;28;20205;-63
2023/10/17 12:22:46;;;;;;;4.28;3.88;;;16.60;99.90;;;;;;5005190;28;20197;-66
2023/10/17 12:25:16;;;;;;;6.45;4.53;;;16.10;99.90;;;;;;4991452;28;20203;-65
2023/10/17 12:27:49;;;;;;;4.32;3.70;;;15.90;99.90;;;;;;4991407;28;20662;-66
2023/10/17 12:30:22;;;;;;;4.22;3.30;;;15.60;99.90;;;;;;5008315;28;20568;-65
2023/10/17 12:32:49;;;;;;;4.88;3.95;;;15.40;99.90;;;;;;5005803;28;20701;-66
2023/10/17 12:35:21;;;;;;;3.72;3.42;;;15.50;99.90;;;;;;5008231;28;20189;-67
2023/10/17 12:37:51;;;;;;;4.35;3.95;;;15.50;99.90;;;;;;5013848;28;20200;-66
2023/10/17 12:40:21;;;;;;;3.92;3.40;;;15.20;99.90;;;;;;5016303;28;20199;-65
2023/10/17 12:42:51;;;;;;;3.65;3.35;;;14.90;99.90;;;;;;5007124;28;20857;-67
2023/10/17 12:45:19;;;;;;;4.32;3.30;;;14.80;99.90;;;;;;5007914;28;20282;-67
2023/10/17 12:47:47;;;;;;;4.40;4.00;;;14.50;99.90;;;;;;5002539;28;20194;-67
2023/10/17 12:50:17;;;;;;;4.57;3.33;;;14.40;99.90;;;;;;5002665;28;20223;-69
2023/10/17 12:52:45;;;;;;;4.83;3.13;;;14.50;99.90;;;;;;5004662;28;20240;-66
2023/10/17 12:55:19;;;;;;;3.97;3.60;;;14.30;99.90;;;;;;5008553;28;20570;-69
2023/10/17 12:57:46;;;;;;;3.93;3.50;;;14.20;99.90;;;;;;5010608;28;20201;-67
2023/10/17 13:00:15;;;;;;;3.53;3.23;;;13.90;99.90;;;;;;4993423;28;20288;-75
2023/10/17 13:02:42;;;;;;;3.67;3.37;;;13.80;99.90;;;;;;5007589;28;20192;-67
2023/10/17 13:05:11;;;;;;;3.70;3.40;;;13.30;99.90;;;;;;4977274;28;20205;-67
2023/10/17 13:07:40;;;;;;;4.00;3.60;;;13.40;99.90;;;;;;5009624;28;20604;-67
2023/10/17 13:10:08;;;;;;;3.17;2.97;;;13.30;99.90;;;;;;5009813;28;20240;-67
2023/10/17 13:12:36;;;;;;;4.10;3.10;;;13.10;99.90;;;;;;5006359;28;20268;-67
2023/10/17 13:15:07;;;;;;;6.40;3.00;;;13.00;99.90;;;;;;4973985;28;20212;-71
2023/10/17 13:17:35;;;;;;;3.37;3.07;;;13.10;99.90;;;;;;4991482;28;20261;-67
2023/10/17 13:20:07;;;;;;;3.90;2.90;;;13.30;99.90;;;;;;5009044;28;20532;-67
2023/10/17 13:22:46;;;;;;;5.10;3.00;;;13.10;99.90;;;;;;5005905;28;20192;-67
2023/10/17 13:25:14;;;;;;;5.80;3.50;;;13.00;99.90;;;;;;4990682;28;20201;-67
2023/10/17 13:27:41;;;;;;;4.80;3.10;;;12.80;99.90;;;;;;5007500;28;20197;-66
2023/10/17 13:30:09;;;;;;;3.53;3.23;;;12.50;99.90;;;;;;4987316;28;20213;-66
2023/10/17 13:32:36;;;;;;;4.03;3.00;;;12.60;99.90;;;;;;5005580;28;20308;-67
2023/10/17 13:35:04;;;;;;;4.03;3.63;;;12.60;99.90;;;;;;4990573;28;20199;-69
2023/10/17 13:37:31;;;;;;;4.03;3.20;;;12.60;99.90;;;;;;5005745;28;20193;-63
2023/10/17 13:39:58;;;;;;;5.53;3.60;;;12.60;99.90;;;;;;5006695;28;20201;-65
2023/10/17 13:42:27;;;;;;;6.60;4.20;;;12.50;99.90;;;;;;4989614;28;20538;-63
2023/10/17 13:44:54;;;;;;;4.27;3.70;;;12.50;99.90;;;;;;5006022;28;20231;-65
2023/10/17 13:47:21;;;;;;;4.53;3.37;;;12.60;99.90;;;;;;5009803;28;20200;-68
2023/10/17 13:49:48;;;;;;;8.50;3.87;;;12.30;99.90;;;;;;5007018;28;20248;-67
2023/10/17 13:52:17;;;;;;;4.97;3.37;;;12.30;99.90;;;;;;4991300;28;20193;-67
2023/10/17 13:54:46;;;;;;;4.00;3.60;;;12.30;99.90;;;;;;5001990;28;20315;-67
2023/10/17 13:57:16;;;;;;;4.80;3.77;;;12.30;99.90;;;;;;5003783;28;20197;-67
2023/10/17 13:59:46;;;;;;;5.27;3.37;;;12.30;99.90;;;;;;4985600;28;20285;-68
2023/10/17 14:02:21;;;;;;;4.43;3.07;;;12.30;99.90;;;;;;5005875;28;20203;-68
2023/10/17 14:04:48;;;;;;;4.63;3.67;;;12.20;99.90;;;;;;5008860;28;20197;-68
2023/10/17 14:07:18;;;;;;;3.43;3.13;;;12.30;99.90;;;;;;4989768;28;20196;-66
2023/10/17 14:09:45;;;;;;;6.27;3.37;;;12.30;99.90;;;;;;5006660;28;20630;-67
2023/10/17 14:12:15;;;;;;;3.60;3.30;;;12.30;99.90;;;;;;5009696;28;20630;-67
2023/10/17 14:14:43;;;;;;;3.40;3.00;;;12.30;99.90;;;;;;5008709;28;20193;-74
2023/10/17 14:17:10;;;;;;;6.13;3.87;;;12.30;99.90;;;;;;5010767;28;20229;-67
2023/10/17 14:19:44;;;;;;;7.60;3.30;;;12.40;99.90;;;;;;5016600;28;20697;-67
2023/10/17 14:27:29;;;;;;;4.93;2.97;;;12.30;99.90;;;;;;5010368;28;20513;-67
2023/10/17 14:30:01;;;;;;;4.30;2.93;;;12.30;99.90;;;;;;5008937;28;20224;-66
2023/10/17 14:32:29;;;;;;;2.97;2.70;;;12.30;99.90;;;;;;4991358;28;20538;-66
2023/10/17 14:34:57;;;;;;;6.93;3.37;;;12.20;99.90;;;;;;5006618;28;20189;-66
2023/10/17 14:37:27;;;;;;;4.90;2.90;;;12.10;99.90;;;;;;5005483;28;20215;-67
2023/10/17 14:39:54;;;;;;;3.80;2.87;;;12.10;99.90;;;;;;5004001;28;20201;-67
2023/10/17 14:42:22;;;;;;;4.27;3.43;;;12.00;99.90;;;;;;5000694;28;20290;-65
2023/10/17 14:44:52;;;;;;;3.80;3.27;;;12.00;99.90;;;;;;5003551;28;20241;-67
2023/10/17 14:47:19;;;;;;;3.70;3.17;;;12.00;99.90;;;;;;4974989;28;20211;-62
2023/10/17 14:49:48;;;;;;;3.07;2.80;;;11.90;99.90;;;;;;5001484;28;20213;-66
2023/10/17 14:52:18;;;;;;;3.50;2.97;;;11.90;99.90;;;;;;4972051;28;20580;-62
2023/10/17 14:54:49;;;;;;;3.60;3.00;;;11.80;99.90;;;;;;5004322;28;20251;-64
2023/10/17 14:57:16;;;;;;;6.37;3.00;;;11.80;99.90;;;;;;4997594;28;20197;-63
2023/10/17 14:59:45;;;;;;;3.37;3.07;;;11.80;99.90;;;;;;4983402;28;20193;-63
2023/10/17 15:02:14;;;;;;;3.33;3.03;;;11.80;99.90;;;;;;4994194;28;20296;-63
2023/10/17 15:04:41;;;;;;;3.90;3.20;;;11.80;99.90;;;;;;5006127;28;20200;-63
2023/10/17 15:07:09;;;;;;;3.37;2.70;;;11.80;99.90;;;;;;5006868;28;20197;-64
2023/10/17 15:09:36;;;;;;;5.93;4.13;;;11.80;99.90;;;;;;5006340;28;20283;-62
2023/10/17 15:12:03;;;;;;;4.57;2.90;;;11.70;99.90;;;;;;5004989;28;20629;-63
2023/10/17 15:14:32;;;;;;;4.07;3.00;;;11.70;99.90;;;;;;4989506;28;20197;-63
2023/10/17 15:16:59;;;;;;;3.77;3.00;;;11.70;99.90;;;;;;5003559;28;20727;-62
2023/10/17 15:19:27;;;;;;;2.80;2.60;;;11.70;99.90;;;;;;4985284;28;20197;-63